Time;durP1;ratioP1;P1;durP2;ratioP2;P2;SDS_P1;SDS_P2;PMS_P1;PMS_P2;Temp;Humidity;BMP_temperature;BMP_pressure;BME280_temperature;BME280_humidity;BME280_pressure;Samples;Min_cycle;Max_cycle;Signal;HPM_P1;HPM_P2
2023/04/24 00:01:07;;;;;;;13.45;6.40;;;;;;;9.00;65.82;100244.92;1691883;84;21059;-56
2023/04/24 00:03:35;;;;;;;11.70;6.30;;;;;;;8.97;66.25;100242.05;1688376;84;21063;-57
2023/04/24 00:06:07;;;;;;;10.70;5.85;;;;;;;8.95;66.44;100245.49;1683038;84;21106;-56
2023/04/24 00:08:36;;;;;;;11.73;6.10;;;;;;;8.94;66.52;100234.23;1684858;84;21048;-56
2023/04/24 00:11:05;;;;;;;14.18;5.95;;;;;;;8.93;66.44;100242.11;1682331;85;21028;-56
2023/04/24 00:13:34;;;;;;;13.85;5.83;;;;;;;8.90;66.64;100243.85;1685114;85;21079;-56
2023/04/24 00:16:04;;;;;;;11.85;5.65;;;;;;;8.89;66.85;100240.80;1685850;84;21109;-56
2023/04/24 00:18:32;;;;;;;16.20;5.62;;;;;;;8.88;66.93;100244.05;1682386;84;21127;-57
2023/04/24 00:21:03;;;;;;;10.68;5.75;;;;;;;8.87;66.88;100240.98;1691054;84;21060;-56
2023/04/24 00:23:32;;;;;;;11.43;5.40;;;;;;;8.87;66.83;100239.62;1693265;83;21012;-56
2023/04/24 00:26:01;;;;;;;13.93;5.83;;;;;;;8.84;66.80;100236.42;1716271;83;21058;-56
2023/04/24 00:28:30;;;;;;;13.28;6.30;;;;;;;8.83;66.81;100237.45;1704480;83;21043;-57
2023/04/24 00:30:59;;;;;;;10.55;6.33;;;;;;;8.80;66.77;100234.59;1721074;83;21087;-55
2023/04/24 00:33:28;;;;;;;11.38;6.20;;;;;;;8.78;66.75;100237.19;1721035;83;20987;-57
2023/04/24 00:35:58;;;;;;;13.75;6.50;;;;;;;8.72;66.82;100240.67;1720925;83;21027;-55
2023/04/24 00:38:27;;;;;;;13.70;6.65;;;;;;;8.69;67.05;100239.17;1720755;83;21471;-57
2023/04/24 00:40:56;;;;;;;11.80;6.55;;;;;;;8.69;67.21;100241.05;1720688;83;21525;-56
2023/04/24 00:43:25;;;;;;;12.40;6.40;;;;;;;8.68;67.46;100247.03;1720856;83;21019;-56
2023/04/24 00:45:55;;;;;;;13.38;5.65;;;;;;;8.68;67.60;100245.67;1699090;83;21525;-57
2023/04/24 00:48:24;;;;;;;12.63;6.08;;;;;;;8.68;67.65;100248.92;1720846;83;21030;-56
2023/04/24 00:50:53;;;;;;;16.25;6.78;;;;;;;8.68;67.79;100250.28;1698392;83;21011;-56
2023/04/24 00:53:22;;;;;;;12.10;6.40;;;;;;;8.72;67.83;100243.41;1720828;83;21082;-56
2023/04/24 00:55:51;;;;;;;18.27;6.53;;;;;;;8.73;67.87;100243.22;1720741;83;21074;-56
2023/04/24 00:58:20;;;;;;;12.78;6.37;;;;;;;8.78;67.82;100242.64;1720918;83;21062;-58
2023/04/24 01:00:52;;;;;;;11.18;6.33;;;;;;;8.79;67.77;100240.24;1720907;83;21059;-56
2023/04/24 01:03:22;;;;;;;19.15;6.67;;;;;;;8.78;67.73;100238.03;1720860;83;21022;-56
2023/04/24 01:05:52;;;;;;;12.40;5.83;;;;;;;8.78;67.90;100244.02;1720639;83;21475;-57
2023/04/24 01:08:21;;;;;;;11.45;6.12;;;;;;;8.72;68.06;100240.67;1720648;83;21043;-56
2023/04/24 01:10:54;;;;;;;10.55;6.12;;;;;;;8.69;68.18;100238.32;1720616;83;21427;-56
2023/04/24 01:13:23;;;;;;;11.68;6.30;;;;;;;8.68;68.27;100236.63;1720632;83;21070;-55
2023/04/24 01:15:52;;;;;;;11.40;5.90;;;;;;;8.71;68.31;100237.61;1720761;83;21901;-57
2023/04/24 01:18:21;;;;;;;11.85;5.80;;;;;;;8.72;68.16;100235.21;1720740;83;21043;-56
2023/04/24 01:20:52;;;;;;;12.80;6.90;;;;;;;8.76;68.05;100233.80;1718620;83;21019;-57
2023/04/24 01:23:21;;;;;;;14.73;6.75;;;;;;;8.73;68.02;100232.29;1720670;83;21067;-55
2023/04/24 01:25:52;;;;;;;12.28;7.12;;;;;;;8.73;68.05;100228.71;1720785;83;21055;-56
2023/04/24 01:28:22;;;;;;;14.85;6.53;;;;;;;8.72;68.07;100236.06;1720731;83;21106;-56
2023/04/24 01:30:51;;;;;;;13.13;6.83;;;;;;;8.72;68.27;100227.86;1720894;83;21063;-57
2023/04/24 01:33:22;;;;;;;11.53;6.05;;;;;;;8.72;68.48;100229.75;1720906;83;21082;-57
2023/04/24 01:35:51;;;;;;;10.70;6.33;;;;;;;8.72;68.62;100225.65;1721113;83;21046;-57
2023/04/24 01:38:19;;;;;;;14.70;6.95;;;;;;;8.72;68.57;100231.95;1721062;83;21102;-59
2023/04/24 01:40:48;;;;;;;10.50;5.62;;;;;;;8.70;68.57;100223.63;1720857;83;21026;-57
2023/04/24 01:43:17;;;;;;;13.08;6.08;;;;;;;8.69;68.63;100222.78;1698930;83;21011;-57
2023/04/24 01:45:46;;;;;;;18.50;6.42;;;;;;;8.69;68.66;100227.39;1698779;83;21071;-56
2023/04/24 01:48:15;;;;;;;23.12;7.05;;;;;;;8.68;68.68;100221.09;1720727;83;21083;-56
2023/04/24 01:50:44;;;;;;;10.90;5.62;;;;;;;8.68;68.74;100225.70;1720878;83;21091;-57
2023/04/24 01:53:13;;;;;;;10.75;5.53;;;;;;;8.65;68.81;100216.00;1720636;83;21031;-57
2023/04/24 01:55:42;;;;;;;12.15;5.70;;;;;;;8.65;68.95;100221.47;1720855;83;21443;-57
2023/04/24 01:58:10;;;;;;;11.60;5.80;;;;;;;8.66;69.06;100212.75;1720978;83;21027;-58
2023/04/24 02:00:39;;;;;;;11.97;5.75;;;;;;;8.65;69.08;100212.42;1720737;83;21532;-56
2023/04/24 02:03:08;;;;;;;12.85;6.17;;;;;;;8.63;69.15;100209.88;1721374;83;21050;-56
2023/04/24 02:05:38;;;;;;;12.73;6.15;;;;;;;8.64;69.19;100212.94;1721326;83;21075;-57
2023/04/24 02:08:13;;;;;;;14.60;6.22;;;;;;;8.63;69.25;100206.31;1722417;83;21020;-56
2023/04/24 02:10:41;;;;;;;12.95;6.40;;;;;;;8.64;69.29;100208.00;1722945;83;21055;-57
2023/04/24 02:13:10;;;;;;;14.28;6.20;;;;;;;8.63;69.31;100207.67;1709136;83;21059;-56
2023/04/24 02:15:40;;;;;;;15.25;6.45;;;;;;;8.59;69.51;100204.47;1721552;83;21094;-56
2023/04/24 02:18:09;;;;;;;14.30;6.10;;;;;;;8.56;69.63;100202.13;1721036;83;21059;-57
2023/04/24 02:20:38;;;;;;;12.82;6.70;;;;;;;8.54;69.72;100202.83;1720811;83;21031;-56
2023/04/24 02:23:07;;;;;;;12.80;6.25;;;;;;;8.52;69.87;100200.81;1720954;83;21094;-58
2023/04/24 02:25:36;;;;;;;10.88;5.55;;;;;;;8.51;69.95;100202.69;1692676;82;21052;-57
2023/04/24 02:28:04;;;;;;;13.18;6.05;;;;;;;8.50;70.03;100198.27;1681918;84;21096;-56
2023/04/24 02:30:35;;;;;;;11.30;6.17;;;;;;;8.52;70.11;100199.44;1683056;85;21067;-58
2023/04/24 02:33:05;;;;;;;13.43;5.78;;;;;;;8.53;70.22;100201.98;1682117;84;21048;-57
2023/04/24 02:35:35;;;;;;;13.45;6.20;;;;;;;8.52;70.24;100197.56;1689475;84;21424;-58
2023/04/24 02:38:05;;;;;;;13.88;6.22;;;;;;;8.51;70.26;100197.23;1686209;84;21496;-56
2023/04/24 02:40:36;;;;;;;14.28;6.83;;;;;;;8.50;70.30;100198.78;1682672;84;21071;-57
2023/04/24 02:43:05;;;;;;;17.60;7.08;;;;;;;8.50;70.28;100198.27;1682207;85;21079;-57
2023/04/24 02:45:35;;;;;;;18.23;6.53;;;;;;;8.48;70.31;100196.25;1672475;85;21047;-56
2023/04/24 02:48:04;;;;;;;12.03;6.65;;;;;;;8.51;70.28;100195.86;1681996;85;21051;-57
2023/04/24 02:50:33;;;;;;;15.08;6.25;;;;;;;8.54;70.21;100192.75;1688831;84;21035;-57
2023/04/24 02:53:02;;;;;;;16.42;6.92;;;;;;;8.56;70.01;100191.20;1686270;84;21035;-57
2023/04/24 02:55:31;;;;;;;11.28;6.35;;;;;;;8.59;69.93;100199.02;1685294;84;21043;-56
2023/04/24 02:58:01;;;;;;;12.58;5.97;;;;;;;8.61;69.98;100195.57;1686669;84;21072;-57
2023/04/24 03:00:30;;;;;;;9.80;5.60;;;;;;;8.67;69.93;100198.06;1680953;84;21485;-56
2023/04/24 03:02:59;;;;;;;11.22;6.05;;;;;;;8.68;69.87;100189.67;1681707;84;21114;-57
2023/04/24 03:05:30;;;;;;;12.28;5.95;;;;;;;8.70;69.88;100190.33;1680095;85;21016;-56
2023/04/24 03:08:00;;;;;;;14.00;6.30;;;;;;;8.72;69.95;100192.87;1680010;85;21541;-60
2023/04/24 03:10:31;;;;;;;10.80;6.12;;;;;;;8.72;70.18;100187.41;1680178;84;21056;-56
2023/04/24 03:13:01;;;;;;;16.93;6.35;;;;;;;8.70;70.36;100190.33;1680015;85;21044;-57
2023/04/24 03:15:30;;;;;;;14.47;6.75;;;;;;;8.71;70.55;100180.25;1679679;85;21004;-57
2023/04/24 03:18:00;;;;;;;23.00;7.50;;;;;;;8.74;70.56;100186.70;1680390;84;21101;-61
2023/04/24 03:20:30;;;;;;;14.07;6.90;;;;;;;8.78;70.52;100187.49;1681208;84;21103;-56
2023/04/24 03:23:00;;;;;;;13.68;6.78;;;;;;;8.84;70.41;100191.34;1682529;84;21049;-56
2023/04/24 03:25:30;;;;;;;13.62;6.53;;;;;;;8.91;70.21;100193.63;1682213;84;21537;-58
2023/04/24 03:27:59;;;;;;;15.00;7.28;;;;;;;8.96;70.14;100192.54;1681465;84;21083;-57
2023/04/24 03:30:30;;;;;;;14.45;7.12;;;;;;;9.01;69.94;100190.07;1687310;84;21050;-55
2023/04/24 03:33:01;;;;;;;16.30;6.53;;;;;;;9.06;69.87;100187.61;1692370;84;21459;-56
2023/04/24 03:35:31;;;;;;;15.72;7.20;;;;;;;9.12;69.78;100190.97;1687300;84;21040;-56
2023/04/24 03:38:04;;;;;;;12.88;6.53;;;;;;;9.16;69.75;100188.69;1685958;85;21064;-55
2023/04/24 03:40:54;;;;;;;14.28;6.45;;;;;;;9.19;69.85;100205.55;1683182;84;21036;-57
2023/04/24 03:43:40;;;;;;;13.68;6.70;;;;;;;9.26;69.71;100200.67;1672948;85;21033;-57
2023/04/24 03:46:09;;;;;;;15.90;6.67;;;;;;;9.29;69.44;100200.29;1683235;85;21075;-57
2023/04/24 03:48:40;;;;;;;14.90;6.30;;;;;;;9.33;69.10;100204.33;1682089;84;21082;-56
2023/04/24 03:51:11;;;;;;;10.88;5.70;;;;;;;9.39;68.99;100198.92;1689710;84;21460;-57
2023/04/24 03:53:42;;;;;;;14.87;6.53;;;;;;;9.45;68.80;100202.77;1683457;85;21503;-56
2023/04/24 03:56:12;;;;;;;13.50;6.70;;;;;;;9.51;68.70;100198.73;1682746;85;21479;-57
2023/04/24 03:58:43;;;;;;;17.15;6.37;;;;;;;9.59;68.60;100198.27;1672346;85;21498;-56
2023/04/24 04:01:13;;;;;;;10.98;5.90;;;;;;;9.67;68.33;100199.50;1672277;85;21098;-54
2023/04/24 04:03:44;;;;;;;14.68;6.70;;;;;;;9.74;67.99;100194.93;1682611;84;21036;-56
2023/04/24 04:06:15;;;;;;;13.80;6.47;;;;;;;9.83;67.70;100204.20;1681158;84;21063;-56
2023/04/24 04:08:45;;;;;;;14.47;6.30;;;;;;;9.94;67.42;100204.19;1682818;83;21041;-58
2023/04/24 04:11:14;;;;;;;16.35;6.35;;;;;;;10.02;67.16;100196.34;1682474;85;21052;-57
2023/04/24 04:13:44;;;;;;;17.00;6.90;;;;;;;10.10;66.66;100198.93;1687363;84;21579;-57
2023/04/24 04:16:13;;;;;;;17.98;6.40;;;;;;;10.19;66.44;100201.84;1692606;84;21083;-57
2023/04/24 04:18:44;;;;;;;14.25;6.37;;;;;;;10.29;66.00;100204.25;1692135;84;21110;-57
2023/04/24 04:21:13;;;;;;;13.85;6.40;;;;;;;10.37;65.42;100203.57;1672450;85;21056;-57
2023/04/24 04:23:42;;;;;;;13.45;6.28;;;;;;;10.50;65.13;100204.73;1681578;84;21056;-57
2023/04/24 04:26:13;;;;;;;18.23;6.75;;;;;;;10.61;64.69;100205.52;1695645;84;21091;-57
2023/04/24 04:28:47;;;;;;;14.03;6.60;;;;;;;10.73;64.51;100210.75;1693699;84;21037;-58
2023/04/24 04:31:17;;;;;;;25.32;6.92;;;;;;;10.84;64.19;100206.06;1700768;84;21110;-58
2023/04/24 04:33:46;;;;;;;12.55;6.80;;;;;;;10.95;63.71;100206.84;1680753;84;21064;-57
2023/04/24 04:36:18;;;;;;;15.30;6.92;;;;;;;11.09;63.03;100207.23;1700847;84;21092;-57
2023/04/24 04:38:49;;;;;;;14.53;6.30;;;;;;;11.23;62.20;100205.91;1700578;84;21048;-57
2023/04/24 04:41:37;;;;;;;25.50;7.20;;;;;;;11.38;61.11;100208.80;1700806;84;21036;-57
2023/04/24 04:44:08;;;;;;;28.42;9.23;;;;;;;11.51;60.62;100202.48;1700648;84;21040;-58
2023/04/24 04:46:38;;;;;;;21.70;7.22;;;;;;;11.61;59.87;100202.92;1700579;84;21040;-58
2023/04/24 04:49:10;;;;;;;18.23;7.22;;;;;;;11.69;58.91;100201.34;1681395;84;21071;-56
2023/04/24 04:51:40;;;;;;;15.50;6.47;;;;;;;11.80;58.03;100201.31;1700793;84;21468;-57
2023/04/24 04:54:11;;;;;;;13.40;5.92;;;;;;;11.94;57.39;100206.27;1684635;84;21562;-57
2023/04/24 04:56:40;;;;;;;12.33;5.37;;;;;;;12.06;56.51;100204.58;1700834;84;21107;-57
2023/04/24 04:59:09;;;;;;;11.63;5.17;;;;;;;12.19;55.41;100198.23;1700793;84;21065;-56
2023/04/24 05:01:39;;;;;;;12.13;5.62;;;;;;;12.31;54.78;100200.64;1700866;84;21107;-56
2023/04/24 05:04:08;;;;;;;11.83;5.40;;;;;;;12.43;53.96;100195.36;1700931;84;21064;-58
2023/04/24 05:06:38;;;;;;;10.48;4.95;;;;;;;12.55;52.70;100200.52;1701016;84;21108;-57
2023/04/24 05:09:08;;;;;;;10.20;5.22;;;;;;;12.67;51.86;100202.38;1681156;84;21024;-56
2023/04/24 05:11:39;;;;;;;11.70;4.47;;;;;;;12.79;50.80;100197.05;1700110;84;21082;-56
2023/04/24 05:14:08;;;;;;;10.50;4.55;;;;;;;12.89;50.20;100198.81;1680556;84;21111;-57
2023/04/24 05:16:40;;;;;;;12.58;4.97;;;;;;;12.97;49.62;100195.81;1698391;84;21028;-57
2023/04/24 05:19:11;;;;;;;12.20;4.85;;;;;;;13.07;49.12;100196.75;1699006;84;21036;-56
2023/04/24 05:21:42;;;;;;;10.45;4.20;;;;;;;13.15;48.20;100195.12;1700980;83;21068;-56
2023/04/24 05:24:13;;;;;;;12.28;4.53;;;;;;;13.24;47.84;100191.08;1700637;84;21060;-57
2023/04/24 05:26:47;;;;;;;10.95;4.55;;;;;;;13.32;47.77;100194.95;1702384;83;21084;-58
2023/04/24 05:29:19;;;;;;;10.45;4.33;;;;;;;13.42;47.44;100198.59;1703395;84;21490;-58
2023/04/24 05:31:48;;;;;;;10.98;4.28;;;;;;;13.52;46.92;100195.35;1703499;83;21075;-56
2023/04/24 05:34:18;;;;;;;9.18;4.75;;;;;;;13.62;46.16;100188.83;1707193;83;21019;-57
2023/04/24 05:36:50;;;;;;;14.18;4.25;;;;;;;13.73;45.42;100184.54;1719121;83;21054;-58
2023/04/24 05:39:20;;;;;;;11.43;5.08;;;;;;;13.80;45.71;100186.17;1719644;83;21031;-57
2023/04/24 05:41:49;;;;;;;10.95;4.80;;;;;;;13.89;45.20;100188.96;1720859;83;21063;-58
2023/04/24 05:44:18;;;;;;;12.73;4.42;;;;;;;13.97;44.89;100182.33;1721229;83;21078;-59
2023/04/24 05:46:48;;;;;;;16.37;5.05;;;;;;;14.06;44.70;100183.73;1721879;83;21051;-56
2023/04/24 05:49:20;;;;;;;12.75;4.87;;;;;;;14.17;44.33;100180.23;1722775;83;21063;-58
2023/04/24 05:51:49;;;;;;;16.90;4.90;;;;;;;14.26;44.33;100178.87;1722779;83;21474;-57
2023/04/24 05:54:18;;;;;;;12.35;4.92;;;;;;;14.37;43.88;100176.47;1722941;83;21038;-58
2023/04/24 05:56:47;;;;;;;11.70;4.20;;;;;;;14.46;43.74;100176.51;1722682;83;21066;-58
2023/04/24 05:59:18;;;;;;;9.75;4.05;;;;;;;14.56;43.60;100182.33;1720763;83;21056;-58
2023/04/24 06:01:48;;;;;;;8.15;3.80;;;;;;;14.61;43.49;100182.48;1720880;83;21055;-58
2023/04/24 06:04:21;;;;;;;13.13;4.28;;;;;;;14.68;43.36;100179.11;1721019;83;21071;-57
2023/04/24 06:06:55;;;;;;;6.42;3.65;;;;;;;14.72;43.39;100175.36;1720841;83;21046;-57
2023/04/24 06:09:24;;;;;;;15.15;4.50;;;;;;;14.76;43.13;100176.05;1720838;83;21031;-58
2023/04/24 06:11:53;;;;;;;25.60;8.40;;;;;;;14.78;43.00;100176.66;1720901;83;21483;-57
2023/04/24 06:14:24;;;;;;;9.80;4.40;;;;;;;14.79;43.03;100185.77;1720916;83;21455;-58
2023/04/24 06:16:55;;;;;;;12.30;3.80;;;;;;;14.79;43.04;100176.97;1699114;83;21035;-56
2023/04/24 06:19:29;;;;;;;10.30;4.12;;;;;;;14.80;42.81;100176.43;1719275;83;21055;-58
2023/04/24 06:21:59;;;;;;;7.60;3.60;;;;;;;14.81;42.77;100179.49;1720782;83;21119;-61
2023/04/24 06:24:29;;;;;;;8.65;3.90;;;;;;;14.79;42.44;100176.97;1720691;83;21091;-57
2023/04/24 06:27:01;;;;;;;9.93;4.00;;;;;;;14.80;42.46;100180.03;1705130;83;21074;-57
2023/04/24 06:29:30;;;;;;;6.12;3.33;;;;;;;14.82;42.78;100180.64;1700783;84;21484;-57
2023/04/24 06:32:01;;;;;;;10.38;3.77;;;;;;;14.91;42.40;100178.41;1700635;84;21481;-58
2023/04/24 06:34:30;;;;;;;10.32;4.00;;;;;;;15.13;42.45;100175.50;1700725;84;21115;-58
2023/04/24 06:37:00;;;;;;;8.58;3.77;;;;;;;15.47;41.88;100176.70;1700786;84;21021;-58
2023/04/24 06:39:30;;;;;;;8.55;3.58;;;;;;;15.88;41.60;100180.59;1700742;84;21032;-56
2023/04/24 06:42:00;;;;;;;9.20;3.98;;;;;;;16.29;40.30;100174.16;1700878;84;21027;-59
2023/04/24 06:44:30;;;;;;;7.35;4.17;;;;;;;16.71;39.68;100178.17;1700579;84;21056;-58
2023/04/24 06:46:58;;;;;;;10.75;4.10;;;;;;;17.13;38.83;100177.42;1700904;84;21035;-59
2023/04/24 06:49:27;;;;;;;11.35;5.15;;;;;;;17.50;38.16;100170.94;1700656;84;21040;-58
2023/04/24 06:51:56;;;;;;;9.18;4.67;;;;;;;17.82;37.14;100167.14;1700889;84;21079;-57
2023/04/24 06:54:28;;;;;;;10.50;4.40;;;;;;;18.17;36.99;100170.20;1700813;83;21083;-58
2023/04/24 06:56:57;;;;;;;6.62;4.00;;;;;;;18.58;36.49;100171.68;1700784;84;21076;-57
2023/04/24 06:59:27;;;;;;;7.90;3.77;;;;;;;18.95;35.61;100170.02;1700677;84;21060;-56
2023/04/24 07:01:57;;;;;;;8.18;3.62;;;;;;;19.30;35.01;100172.94;1700612;84;21088;-57
2023/04/24 07:04:26;;;;;;;9.30;3.92;;;;;;;19.70;34.02;100167.58;1700961;84;21069;-58
2023/04/24 07:06:56;;;;;;;40.60;6.70;;;;;;;20.05;33.47;100169.83;1666744;86;21120;-56
2023/04/24 07:09:25;;;;;;;11.53;4.50;;;;;;;20.36;32.64;100171.77;1650711;87;21051;-57
2023/04/24 07:11:56;;;;;;;10.00;3.70;;;;;;;20.61;31.28;100176.69;1667270;85;21040;-57
2023/04/24 07:14:25;;;;;;;7.80;4.03;;;;;;;20.82;31.20;100173.48;1700951;84;21093;-59
2023/04/24 07:16:54;;;;;;;9.03;3.95;;;;;;;21.09;30.53;100181.69;1700630;84;21095;-58
2023/04/24 07:19:23;;;;;;;16.67;5.03;;;;;;;21.25;30.24;100179.27;1700828;84;21595;-57
2023/04/24 07:21:53;;;;;;;13.08;4.58;;;;;;;21.36;29.80;100173.17;1700893;84;21064;-57
2023/04/24 07:24:22;;;;;;;13.72;4.78;;;;;;;21.49;29.58;100174.91;1700939;84;21020;-57
2023/04/24 07:26:55;;;;;;;16.10;4.33;;;;;;;21.58;29.25;100181.34;1700565;84;21076;-59
2023/04/24 07:29:25;;;;;;;8.58;3.72;;;;;;;21.65;29.54;100167.41;1700704;84;21064;-57
2023/04/24 07:31:53;;;;;;;9.55;4.08;;;;;;;21.72;28.71;100176.90;1701085;84;21040;-57
2023/04/24 07:34:23;;;;;;;5.30;3.45;;;;;;;21.78;28.86;100172.44;1700747;84;21020;-58
2023/04/24 07:36:52;;;;;;;8.43;4.00;;;;;;;22.10;27.86;100172.77;1700702;84;21040;-56
2023/04/24 07:39:21;;;;;;;9.35;3.55;;;;;;;22.25;27.88;100168.60;1701066;84;21044;-59
2023/04/24 07:41:50;;;;;;;5.17;3.08;;;;;;;22.28;27.63;100168.04;1700633;84;21040;-57
2023/04/24 07:44:19;;;;;;;5.50;3.40;;;;;;;22.35;27.29;100167.75;1700718;84;21087;-57
2023/04/24 07:46:52;;;;;;;6.62;3.25;;;;;;;22.51;27.17;100169.96;1700811;84;21079;-59
2023/04/24 07:49:20;;;;;;;4.67;2.83;;;;;;;22.64;26.23;100159.03;1700726;84;21036;-59
2023/04/24 07:51:50;;;;;;;7.20;3.17;;;;;;;22.77;26.18;100160.42;1700891;84;21047;-57
2023/04/24 07:54:18;;;;;;;7.08;3.08;;;;;;;22.96;26.53;100160.67;1700844;84;21028;-56
2023/04/24 07:56:48;;;;;;;8.13;3.27;;;;;;;23.15;25.54;100154.71;1700987;84;21104;-57
2023/04/24 07:59:17;;;;;;;6.97;3.20;;;;;;;23.12;25.69;100161.44;1701041;84;21444;-57
2023/04/24 08:01:46;;;;;;;7.20;2.77;;;;;;;23.16;25.89;100162.54;1700814;84;21063;-56
2023/04/24 08:04:15;;;;;;;6.05;3.10;;;;;;;23.21;25.72;100162.51;1700929;84;21096;-58
2023/04/24 08:06:45;;;;;;;6.10;3.02;;;;;;;23.27;25.46;100163.59;1700818;83;21027;-58
2023/04/24 08:09:14;;;;;;;6.42;2.67;;;;;;;23.30;24.96;100153.23;1701068;84;21110;-58
2023/04/24 08:11:43;;;;;;;3.95;2.42;;;;;;;23.36;24.70;100152.64;1700156;84;21519;-59
2023/04/24 08:14:14;;;;;;;7.97;3.10;;;;;;;23.42;24.27;100157.67;1700220;84;21036;-59
2023/04/24 08:16:43;;;;;;;9.95;3.37;;;;;;;23.40;24.47;100148.14;1700752;84;21514;-57
2023/04/24 08:19:12;;;;;;;8.15;3.10;;;;;;;23.51;24.17;100159.58;1700661;84;21063;-59
2023/04/24 08:21:42;;;;;;;4.65;2.20;;;;;;;23.55;23.70;100162.09;1698460;83;21072;-58
2023/04/24 08:24:11;;;;;;;11.90;3.20;;;;;;;23.58;23.22;100158.72;1695181;84;21026;-58
2023/04/24 08:26:40;;;;;;;7.53;2.45;;;;;;;23.62;23.70;100151.98;1699709;83;21067;-58
2023/04/24 08:29:10;;;;;;;4.40;2.30;;;;;;;23.78;23.56;100159.70;1702419;84;21107;-59
2023/04/24 08:31:39;;;;;;;4.72;2.50;;;;;;;23.92;23.34;100157.34;1676406;83;21089;-59
2023/04/24 08:34:09;;;;;;;5.45;3.27;;;;;;;24.01;23.32;100156.16;1661138;85;21123;-59
2023/04/24 08:36:40;;;;;;;4.22;2.30;;;;;;;23.98;23.23;100153.95;1660116;86;22001;-58
2023/04/24 08:39:11;;;;;;;6.25;2.47;;;;;;;24.09;23.36;100144.36;1676732;84;21103;-58
2023/04/24 08:41:42;;;;;;;6.10;2.22;;;;;;;24.15;22.74;100148.78;1703169;84;21087;-58
2023/04/24 08:44:12;;;;;;;10.35;2.70;;;;;;;23.99;22.46;100138.82;1703294;84;21095;-58
2023/04/24 08:46:42;;;;;;;5.47;2.25;;;;;;;23.80;22.32;100143.45;1703681;84;21083;-58
2023/04/24 08:49:13;;;;;;;3.90;2.35;;;;;;;23.61;22.43;100130.17;1703543;84;21067;-59
2023/04/24 08:51:42;;;;;;;7.30;3.52;;;;;;;23.50;22.87;100122.11;1703737;84;21151;-58
2023/04/24 08:54:12;;;;;;;4.05;2.30;;;;;;;23.45;23.42;100120.18;1703558;84;21044;-60
2023/04/24 08:56:41;;;;;;;3.60;2.47;;;;;;;23.50;23.08;100127.14;1703566;84;21062;-61
2023/04/24 08:59:10;;;;;;;8.05;2.75;;;;;;;23.52;23.29;100118.45;1703731;84;21073;-60
2023/04/24 09:01:39;;;;;;;8.80;2.70;;;;;;;23.36;23.25;100118.53;1703672;84;21041;-60
2023/04/24 09:04:10;;;;;;;4.42;2.70;;;;;;;23.18;23.77;100109.41;1684049;84;21208;-58
2023/04/24 09:06:40;;;;;;;5.75;2.30;;;;;;;23.06;24.09;100120.94;1703552;83;21539;-59
2023/04/24 09:09:09;;;;;;;6.80;2.52;;;;;;;23.06;24.28;100119.54;1703786;83;21571;-60
2023/04/24 09:11:38;;;;;;;3.95;2.20;;;;;;;23.05;24.06;100105.85;1703442;84;21033;-60
2023/04/24 09:14:07;;;;;;;5.40;2.20;;;;;;;22.94;23.97;100110.66;1703516;83;21018;-59
2023/04/24 09:16:36;;;;;;;6.50;2.37;;;;;;;22.70;24.15;100108.18;1703464;84;21030;-60
2023/04/24 09:19:06;;;;;;;5.80;2.10;;;;;;;22.49;24.20;100110.21;1703625;84;21038;-58
2023/04/24 09:21:35;;;;;;;4.37;2.00;;;;;;;22.27;24.23;100097.98;1703358;84;21559;-59
2023/04/24 09:24:12;;;;;;;5.08;2.02;;;;;;;22.12;24.38;100097.45;1680862;84;21036;-58
2023/04/24 09:26:41;;;;;;;3.12;2.30;;;;;;;21.98;23.85;100094.05;1678487;84;21544;-59
2023/04/24 09:29:16;;;;;;;3.20;2.00;;;;;;;21.84;24.32;100087.66;1673878;86;21036;-60
2023/04/24 09:31:45;;;;;;;2.30;1.82;;;;;;;21.80;24.77;100091.28;1675064;85;21124;-59
2023/04/24 09:34:17;;;;;;;6.78;2.40;;;;;;;21.71;23.99;100091.00;1676135;85;21072;-59
2023/04/24 09:36:47;;;;;;;3.65;2.10;;;;;;;21.62;24.41;100086.27;1676600;86;21480;-60
2023/04/24 09:39:17;;;;;;;3.45;1.90;;;;;;;21.62;24.76;100091.84;1674734;86;21040;-58
2023/04/24 09:41:49;;;;;;;7.35;2.55;;;;;;;21.61;24.63;100088.22;1673351;86;21059;-57
2023/04/24 09:44:28;;;;;;;3.62;2.20;;;;;;;21.56;24.72;100084.59;1673205;85;21012;-58
2023/04/24 09:47:00;;;;;;;7.05;2.40;;;;;;;21.49;24.53;100077.33;1673400;85;21491;-59
2023/04/24 09:49:30;;;;;;;5.10;2.10;;;;;;;21.42;24.40;100084.27;1673081;86;21088;-57
2023/04/24 09:52:06;;;;;;;5.45;2.47;;;;;;;21.28;24.75;100085.36;1672994;86;21032;-58
2023/04/24 09:54:38;;;;;;;3.72;2.00;;;;;;;21.18;24.69;100088.93;1673361;85;21460;-57
2023/04/24 09:57:09;;;;;;;7.25;2.70;;;;;;;21.10;24.33;100085.29;1682271;84;21089;-59
2023/04/24 09:59:47;;;;;;;4.08;2.30;;;;;;;20.98;24.23;100083.31;1702915;84;21081;-58
2023/04/24 10:02:18;;;;;;;3.77;1.65;;;;;;;20.88;24.37;100074.92;1702926;84;20998;-60
2023/04/24 10:04:58;;;;;;;3.80;1.90;;;;;;;20.78;24.55;100079.03;1702023;83;21034;-60
2023/04/24 10:07:28;;;;;;;4.12;2.20;;;;;;;20.69;24.52;100072.31;1698269;83;21045;-58
2023/04/24 10:09:57;;;;;;;2.85;1.92;;;;;;;20.60;25.15;100072.56;1698061;83;21081;-58
2023/04/24 10:12:28;;;;;;;3.83;2.47;;;;;;;20.54;25.20;100066.12;1698506;83;21041;-59
2023/04/24 10:14:58;;;;;;;4.03;2.12;;;;;;;20.49;25.04;100068.34;1698534;83;21463;-58
2023/04/24 10:17:27;;;;;;;6.20;1.90;;;;;;;20.43;25.33;100062.47;1698493;83;21105;-60
2023/04/24 10:19:56;;;;;;;3.35;2.55;;;;;;;20.40;25.89;100060.22;1674542;84;21085;-59
2023/04/24 10:22:25;;;;;;;5.25;2.52;;;;;;;20.41;26.17;100056.33;1698346;83;21022;-57
2023/04/24 10:24:54;;;;;;;4.45;2.27;;;;;;;20.39;26.32;100065.50;1700893;84;21065;-61
2023/04/24 10:27:23;;;;;;;6.80;2.60;;;;;;;20.34;26.44;100057.09;1701862;82;21488;-59
2023/04/24 10:29:52;;;;;;;4.92;2.22;;;;;;;20.25;26.58;100058.72;1702729;84;21068;-58
2023/04/24 10:32:20;;;;;;;4.72;2.35;;;;;;;20.15;26.90;100064.20;1712704;84;21053;-58
2023/04/24 10:34:49;;;;;;;8.38;2.52;;;;;;;20.09;26.60;100061.09;1717457;83;21050;-58
2023/04/24 10:37:18;;;;;;;5.55;2.30;;;;;;;20.07;25.64;100055.80;1717540;83;21049;-57
2023/04/24 10:39:50;;;;;;;4.05;2.25;;;;;;;20.01;25.51;100058.27;1717553;83;21037;-58
2023/04/24 10:42:19;;;;;;;3.42;2.20;;;;;;;19.91;25.35;100056.26;1717819;83;21088;-57
2023/04/24 10:44:49;;;;;;;4.30;2.37;;;;;;;19.84;25.28;100055.66;1717640;83;21437;-57
2023/04/24 10:47:18;;;;;;;7.62;2.10;;;;;;;19.73;25.50;100055.84;1717568;83;21029;-57
2023/04/24 10:49:46;;;;;;;3.58;2.17;;;;;;;19.69;25.60;100054.15;1717545;83;21474;-58
2023/04/24 10:52:16;;;;;;;5.47;2.50;;;;;;;19.67;25.79;100054.97;1690087;83;21077;-57
2023/04/24 10:54:46;;;;;;;5.12;2.45;;;;;;;19.64;26.02;100045.77;1717832;83;21048;-58
2023/04/24 10:57:29;;;;;;;2.40;1.80;;;;;;;19.67;26.36;100052.19;1717555;83;21029;-58
2023/04/24 11:00:19;;;;;;;3.47;2.05;;;;;;;19.72;26.28;100035.55;1717280;83;20994;-57
2023/04/24 11:02:49;;;;;;;3.98;2.00;;;;;;;19.71;25.97;100044.16;1717642;83;21104;-59
2023/04/24 11:05:19;;;;;;;2.70;1.87;;;;;;;19.74;26.61;100036.67;1717561;83;21527;-59
2023/04/24 11:08:15;;;;;;;3.87;2.02;;;;;;;19.82;26.46;100028.67;1717465;83;21073;-59
2023/04/24 11:10:46;;;;;;;6.25;2.30;;;;;;;19.89;25.49;100027.88;1717197;83;21025;-58
2023/04/24 11:13:20;;;;;;;5.90;2.33;;;;;;;19.91;25.79;100031.78;1717441;83;21104;-57
2023/04/24 11:16:38;;;;;;;6.70;2.17;;;;;;;19.94;26.03;100029.30;1690312;83;21080;-59
2023/04/24 11:19:21;;;;;;;4.42;2.00;;;;;;;19.93;26.21;100028.18;1706140;83;21104;-59
2023/04/24 11:22:02;;;;;;;4.55;2.20;;;;;;;19.96;27.17;100027.64;1717766;83;21466;-57
2023/04/24 11:24:39;;;;;;;7.15;2.17;;;;;;;20.01;26.98;100022.11;1703732;83;21091;-60
2023/04/24 11:27:20;;;;;;;4.35;2.12;;;;;;;20.10;27.37;100028.84;1699950;84;21602;-59
2023/04/24 11:29:59;;;;;;;5.40;2.10;;;;;;;20.20;27.22;100023.36;1707470;83;21064;-59
2023/04/24 11:32:42;;;;;;;4.67;2.37;;;;;;;20.19;26.92;100023.08;1715563;83;20997;-59
2023/04/24 11:35:24;;;;;;;6.55;2.10;;;;;;;20.12;26.79;100028.02;1703057;84;21119;-58
2023/04/24 11:37:53;;;;;;;4.65;2.15;;;;;;;20.08;27.29;100031.61;1714574;83;21491;-58
2023/04/24 11:40:25;;;;;;;7.90;3.40;;;;;;;20.09;27.62;100028.55;1705760;84;21519;-59